Guinda, California
Current Conditions -  °F | °C
As of 9:55 AM on Monday 22 Dec 2014 (Local Time) from KEDU Reporting Station
Overcast Overcast  
Wind Chill: 14°   Ceiling: 600
Heat Index: 14°   Visibility: 10mi
Dew Point: 12°   Wind: 8mph
Humidity: 88%   Direction: 10°N
Pressure: 30.3"   Gusts: NA
Location:  38.83°N, 122.2°W
Report Text: KEDU 221755Z AUTO 01007KT 10SM OVC006 14/12 A3030 RMK AO1
Loading
Personal Weather Stations






























Interactive Weather Map New forecast layout! Learn more

10-Day Weather Forecast

Advertisements
Track Severe Weather on mobile